sensor_id;sensor_type;location;lat;lon;timestamp;pressure;altitude;pressure_sealevel;temperature;humidity
39141;BME280;24875;48.436;10.298;2022-09-17T00:00:23;95801.59;;;11.72;98.17
39141;BME280;24875;48.436;10.298;2022-09-17T00:02:51;95796.13;;;11.80;98.52
39141;BME280;24875;48.436;10.298;2022-09-17T00:05:20;95801.91;;;11.56;97.96
39141;BME280;24875;48.436;10.298;2022-09-17T00:07:47;95810.66;;;11.63;98.57
39141;BME280;24875;48.436;10.298;2022-09-17T00:10:13;95806.97;;;11.57;98.92
39141;BME280;24875;48.436;10.298;2022-09-17T00:12:40;95801.06;;;11.55;99.10
39141;BME280;24875;48.436;10.298;2022-09-17T00:15:07;95800.59;;;11.73;99.01
39141;BME280;24875;48.436;10.298;2022-09-17T00:17:34;95806.59;;;11.60;99.92
39141;BME280;24875;48.436;10.298;2022-09-17T00:20:05;95803.75;;;11.62;99.53
39141;BME280;24875;48.436;10.298;2022-09-17T00:22:33;95797.47;;;11.63;99.04
39141;BME280;24875;48.436;10.298;2022-09-17T00:25:00;95803.38;;;11.65;99.50
39141;BME280;24875;48.436;10.298;2022-09-17T00:27:26;95816.50;;;11.52;100.00
39141;BME280;24875;48.436;10.298;2022-09-17T00:29:52;95817.69;;;11.50;100.00
39141;BME280;24875;48.436;10.298;2022-09-17T00:32:19;95820.66;;;11.47;99.86
39141;BME280;24875;48.436;10.298;2022-09-17T00:34:45;95808.75;;;11.51;99.98
39141;BME280;24875;48.436;10.298;2022-09-17T00:37:14;95820.75;;;11.53;100.00
39141;BME280;24875;48.436;10.298;2022-09-17T00:39:41;95822.56;;;11.25;100.00
39141;BME280;24875;48.436;10.298;2022-09-17T00:42:08;95819.53;;;11.28;99.73
39141;BME280;24875;48.436;10.298;2022-09-17T00:44:42;95815.78;;;11.44;97.35
39141;BME280;24875;48.436;10.298;2022-09-17T00:47:18;95819.88;;;11.46;98.87
39141;BME280;24875;48.436;10.298;2022-09-17T00:49:46;95824.28;;;11.39;98.83
39141;BME280;24875;48.436;10.298;2022-09-17T00:52:18;95827.28;;;11.36;96.71
39141;BME280;24875;48.436;10.298;2022-09-17T00:54:50;95837.75;;;11.23;95.01
39141;BME280;24875;48.436;10.298;2022-09-17T00:57:17;95836.28;;;11.21;95.47
39141;BME280;24875;48.436;10.298;2022-09-17T00:59:44;95838.50;;;11.17;95.39
39141;BME280;24875;48.436;10.298;2022-09-17T01:02:11;95840.75;;;11.20;95.99
39141;BME280;24875;48.436;10.298;2022-09-17T01:04:38;95839.53;;;11.16;96.39
39141;BME280;24875;48.436;10.298;2022-09-17T01:07:08;95840.72;;;11.41;96.24
39141;BME280;24875;48.436;10.298;2022-09-17T01:09:44;95837.28;;;11.41;95.70
39141;BME280;24875;48.436;10.298;2022-09-17T01:12:32;95828.56;;;11.47;95.50
39141;BME280;24875;48.436;10.298;2022-09-17T01:15:09;95830.28;;;11.54;95.44
39141;BME280;24875;48.436;10.298;2022-09-17T01:17:43;95839.63;;;11.29;96.38
39141;BME280;24875;48.436;10.298;2022-09-17T01:23:25;95838.28;;;11.40;95.59
39141;BME280;24875;48.436;10.298;2022-09-17T01:26:14;95838.09;;;11.41;95.58
39141;BME280;24875;48.436;10.298;2022-09-17T01:28:53;95839.72;;;11.42;95.91
39141;BME280;24875;48.436;10.298;2022-09-17T01:31:32;95850.41;;;11.34;95.36
39141;BME280;24875;48.436;10.298;2022-09-17T01:34:10;95852.66;;;11.37;95.12
39141;BME280;24875;48.436;10.298;2022-09-17T01:36:49;95850.41;;;11.34;95.40
39141;BME280;24875;48.436;10.298;2022-09-17T01:39:29;95853.41;;;11.31;95.75
39141;BME280;24875;48.436;10.298;2022-09-17T01:42:05;95855.81;;;11.26;95.83
39141;BME280;24875;48.436;10.298;2022-09-17T01:44:36;95859.09;;;11.28;97.08
39141;BME280;24875;48.436;10.298;2022-09-17T01:47:11;95867.75;;;11.22;97.65
39141;BME280;24875;48.436;10.298;2022-09-17T01:49:40;95866.19;;;11.07;97.38
39141;BME280;24875;48.436;10.298;2022-09-17T01:52:10;95852.16;;;11.27;97.05
39141;BME280;24875;48.436;10.298;2022-09-17T01:54:41;95851.72;;;11.24;96.82
39141;BME280;24875;48.436;10.298;2022-09-17T01:57:13;95861.63;;;11.15;96.65
39141;BME280;24875;48.436;10.298;2022-09-17T01:59:46;95861.53;;;11.30;96.95
39141;BME280;24875;48.436;10.298;2022-09-17T02:02:19;95857.84;;;11.24;96.60
39141;BME280;24875;48.436;10.298;2022-09-17T02:04:52;95860.84;;;11.21;96.17
39141;BME280;24875;48.436;10.298;2022-09-17T02:07:20;95856.53;;;11.14;96.18
39141;BME280;24875;48.436;10.298;2022-09-17T02:09:52;95849.47;;;11.21;96.58
39141;BME280;24875;48.436;10.298;2022-09-17T02:12:23;95851.19;;;11.07;97.94
39141;BME280;24875;48.436;10.298;2022-09-17T02:14:55;95844.66;;;11.03;97.68
39141;BME280;24875;48.436;10.298;2022-09-17T02:17:29;95844.84;;;11.02;96.28
39141;BME280;24875;48.436;10.298;2022-09-17T02:19:57;95844.59;;;10.97;96.79
39141;BME280;24875;48.436;10.298;2022-09-17T02:22:27;95847.00;;;10.92;96.72
39141;BME280;24875;48.436;10.298;2022-09-17T02:25:00;95842.16;;;10.95;96.23
39141;BME280;24875;48.436;10.298;2022-09-17T02:27:36;95846.63;;;10.95;96.27
39141;BME280;24875;48.436;10.298;2022-09-17T02:30:06;95840.09;;;10.91;97.43
39141;BME280;24875;48.436;10.298;2022-09-17T02:32:34;95829.75;;;10.90;96.55
39141;BME280;24875;48.436;10.298;2022-09-17T02:35:00;95825.22;;;10.84;96.29
39141;BME280;24875;48.436;10.298;2022-09-17T02:37:27;95826.59;;;10.80;96.79
39141;BME280;24875;48.436;10.298;2022-09-17T02:39:53;95822.78;;;10.82;97.48
39141;BME280;24875;48.436;10.298;2022-09-17T02:42:25;95823.34;;;10.98;96.44
39141;BME280;24875;48.436;10.298;2022-09-17T02:44:59;95816.78;;;10.94;96.47
39141;BME280;24875;48.436;10.298;2022-09-17T02:51:00;95825.53;;;10.95;96.12
39141;BME280;24875;48.436;10.298;2022-09-17T02:53:34;95826.03;;;10.84;96.40
39141;BME280;24875;48.436;10.298;2022-09-17T02:56:10;95828.66;;;10.84;96.61
39141;BME280;24875;48.436;10.298;2022-09-17T02:58:44;95830.63;;;10.76;96.73
39141;BME280;24875;48.436;10.298;2022-09-17T03:01:17;95823.78;;;10.60;97.17
39141;BME280;24875;48.436;10.298;2022-09-17T03:03:47;95820.25;;;10.74;96.92
39141;BME280;24875;48.436;10.298;2022-09-17T03:06:16;95820.81;;;10.70;96.25
39141;BME280;24875;48.436;10.298;2022-09-17T03:08:43;95816.47;;;10.62;96.48
39141;BME280;24875;48.436;10.298;2022-09-17T03:11:11;95817.06;;;10.58;97.29
39141;BME280;24875;48.436;10.298;2022-09-17T03:13:38;95814.84;;;10.61;96.97
39141;BME280;24875;48.436;10.298;2022-09-17T03:16:05;95810.59;;;10.60;97.80
39141;BME280;24875;48.436;10.298;2022-09-17T03:18:32;95818.31;;;10.62;98.02
39141;BME280;24875;48.436;10.298;2022-09-17T03:21:00;95822.06;;;10.74;96.93
39141;BME280;24875;48.436;10.298;2022-09-17T03:23:26;95808.63;;;10.69;96.82
39141;BME280;24875;48.436;10.298;2022-09-17T03:25:53;95805.75;;;10.64;96.91
39141;BME280;24875;48.436;10.298;2022-09-17T03:28:20;95806.84;;;10.69;97.11
39141;BME280;24875;48.436;10.298;2022-09-17T03:30:46;95817.25;;;10.77;96.59
39141;BME280;24875;48.436;10.298;2022-09-17T03:33:13;95821.53;;;10.78;96.25
39141;BME280;24875;48.436;10.298;2022-09-17T03:35:41;95822.19;;;10.87;96.35
39141;BME280;24875;48.436;10.298;2022-09-17T03:38:09;95822.97;;;10.81;96.74
39141;BME280;24875;48.436;10.298;2022-09-17T03:40:36;95829.44;;;10.78;96.96
39141;BME280;24875;48.436;10.298;2022-09-17T03:43:03;95826.94;;;10.77;97.41
39141;BME280;24875;48.436;10.298;2022-09-17T03:45:30;95817.25;;;10.77;96.89
39141;BME280;24875;48.436;10.298;2022-09-17T03:47:56;95819.25;;;10.54;97.18
39141;BME280;24875;48.436;10.298;2022-09-17T03:50:23;95823.50;;;10.55;97.64
39141;BME280;24875;48.436;10.298;2022-09-17T03:52:49;95824.91;;;10.51;98.35
39141;BME280;24875;48.436;10.298;2022-09-17T03:55:17;95820.81;;;10.70;98.52
39141;BME280;24875;48.436;10.298;2022-09-17T03:57:44;95826.34;;;10.54;98.63
39141;BME280;24875;48.436;10.298;2022-09-17T04:00:11;95814.69;;;10.63;98.81
39141;BME280;24875;48.436;10.298;2022-09-17T04:02:39;95818.91;;;10.64;98.71
39141;BME280;24875;48.436;10.298;2022-09-17T04:05:07;95833.00;;;10.71;98.75
39141;BME280;24875;48.436;10.298;2022-09-17T04:07:34;95836.69;;;10.55;99.26
39141;BME280;24875;48.436;10.298;2022-09-17T04:10:00;95829.97;;;10.53;98.91
39141;BME280;24875;48.436;10.298;2022-09-17T04:12:30;95829.31;;;10.51;99.11
39141;BME280;24875;48.436;10.298;2022-09-17T04:14:56;95833.06;;;10.42;100.00
39141;BME280;24875;48.436;10.298;2022-09-17T04:17:23;95828.06;;;10.47;100.00
39141;BME280;24875;48.436;10.298;2022-09-17T04:19:49;95829.19;;;10.59;100.00
39141;BME280;24875;48.436;10.298;2022-09-17T04:22:16;95819.03;;;10.56;100.00
39141;BME280;24875;48.436;10.298;2022-09-17T04:24:42;95824.19;;;10.43;99.85
39141;BME280;24875;48.436;10.298;2022-09-17T04:27:09;95823.53;;;10.41;100.00
39141;BME280;24875;48.436;10.298;2022-09-17T04:29:36;95824.97;;;10.43;100.00
39141;BME280;24875;48.436;10.298;2022-09-17T04:32:03;95829.19;;;10.38;100.00
39141;BME280;24875;48.436;10.298;2022-09-17T04:34:30;95825.75;;;10.37;100.00
39141;BME280;24875;48.436;10.298;2022-09-17T04:36:57;95823.91;;;10.38;100.00
39141;BME280;24875;48.436;10.298;2022-09-17T04:39:23;95836.09;;;10.39;99.89
39141;BME280;24875;48.436;10.298;2022-09-17T04:41:50;95838.34;;;10.42;100.00
39141;BME280;24875;48.436;10.298;2022-09-17T04:44:16;95833.47;;;10.39;100.00
39141;BME280;24875;48.436;10.298;2022-09-17T04:46:44;95829.25;;;10.44;98.94
39141;BME280;24875;48.436;10.298;2022-09-17T04:49:11;95836.34;;;10.44;98.85
39141;BME280;24875;48.436;10.298;2022-09-17T04:51:37;95838.47;;;10.34;99.79
39141;BME280;24875;48.436;10.298;2022-09-17T04:54:04;95844.59;;;10.41;99.93
39141;BME280;24875;48.436;10.298;2022-09-17T04:56:31;95846.06;;;10.43;100.00
39141;BME280;24875;48.436;10.298;2022-09-17T04:58:57;95841.63;;;10.44;100.00
39141;BME280;24875;48.436;10.298;2022-09-17T05:01:23;95853.09;;;10.57;99.64
39141;BME280;24875;48.436;10.298;2022-09-17T05:03:51;95845.66;;;10.61;98.27
39141;BME280;24875;48.436;10.298;2022-09-17T05:06:18;95849.78;;;10.49;98.96
39141;BME280;24875;48.436;10.298;2022-09-17T05:08:44;95860.88;;;10.44;99.10
39141;BME280;24875;48.436;10.298;2022-09-17T05:11:10;95856.69;;;10.35;99.36
39141;BME280;24875;48.436;10.298;2022-09-17T05:13:37;95856.34;;;10.24;99.99
39141;BME280;24875;48.436;10.298;2022-09-17T05:16:04;95858.47;;;10.29;99.32
39141;BME280;24875;48.436;10.298;2022-09-17T05:18:30;95862.28;;;10.26;99.38
39141;BME280;24875;48.436;10.298;2022-09-17T05:20:58;95864.59;;;10.35;100.00
39141;BME280;24875;48.436;10.298;2022-09-17T05:23:24;95864.56;;;10.15;100.00
39141;BME280;24875;48.436;10.298;2022-09-17T05:25:51;95858.56;;;10.06;100.00
39141;BME280;24875;48.436;10.298;2022-09-17T05:28:18;95869.25;;;10.19;100.00
39141;BME280;24875;48.436;10.298;2022-09-17T05:30:44;95870.72;;;10.07;100.00
39141;BME280;24875;48.436;10.298;2022-09-17T05:33:10;95872.19;;;10.10;100.00
39141;BME280;24875;48.436;10.298;2022-09-17T05:35:37;95872.97;;;10.10;100.00
39141;BME280;24875;48.436;10.298;2022-09-17T05:38:05;95876.53;;;10.17;100.00
39141;BME280;24875;48.436;10.298;2022-09-17T05:40:32;95881.88;;;10.09;100.00
39141;BME280;24875;48.436;10.298;2022-09-17T05:43:00;95878.44;;;10.09;100.00
39141;BME280;24875;48.436;10.298;2022-09-17T05:45:27;95884.63;;;10.16;100.00
39141;BME280;24875;48.436;10.298;2022-09-17T05:47:54;95888.69;;;10.18;100.00
39141;BME280;24875;48.436;10.298;2022-09-17T05:50:21;95899.59;;;10.15;100.00
39141;BME280;24875;48.436;10.298;2022-09-17T05:52:48;95906.94;;;10.20;100.00
39141;BME280;24875;48.436;10.298;2022-09-17T05:55:16;95910.56;;;10.33;98.86
39141;BME280;24875;48.436;10.298;2022-09-17T05:57:43;95905.41;;;10.25;99.13
39141;BME280;24875;48.436;10.298;2022-09-17T06:00:10;95912.56;;;10.31;99.14
39141;BME280;24875;48.436;10.298;2022-09-17T06:02:37;95916.47;;;10.21;99.23
39141;BME280;24875;48.436;10.298;2022-09-17T06:05:04;95915.56;;;10.28;99.18
39141;BME280;24875;48.436;10.298;2022-09-17T06:07:31;95914.84;;;10.20;99.69
39141;BME280;24875;48.436;10.298;2022-09-17T06:09:59;95928.81;;;10.34;98.35
39141;BME280;24875;48.436;10.298;2022-09-17T06:12:27;95926.97;;;10.49;98.23
39141;BME280;24875;48.436;10.298;2022-09-17T06:14:54;95921.28;;;10.32;98.31
39141;BME280;24875;48.436;10.298;2022-09-17T06:17:20;95926.97;;;10.49;98.68
39141;BME280;24875;48.436;10.298;2022-09-17T06:19:47;95932.34;;;10.41;98.05
39141;BME280;24875;48.436;10.298;2022-09-17T06:22:13;95931.25;;;10.50;98.16
39141;BME280;24875;48.436;10.298;2022-09-17T06:24:40;95938.25;;;10.58;97.05
39141;BME280;24875;48.436;10.298;2022-09-17T06:27:06;95935.97;;;10.55;97.00
39141;BME280;24875;48.436;10.298;2022-09-17T06:29:34;95939.59;;;10.68;96.13
39141;BME280;24875;48.436;10.298;2022-09-17T06:32:01;95945.03;;;10.67;94.47
39141;BME280;24875;48.436;10.298;2022-09-17T06:34:27;95952.09;;;10.81;94.22
39141;BME280;24875;48.436;10.298;2022-09-17T06:36:54;95959.25;;;10.87;94.17
39141;BME280;24875;48.436;10.298;2022-09-17T06:39:20;95962.19;;;10.77;92.73
39141;BME280;24875;48.436;10.298;2022-09-17T06:41:47;95958.50;;;10.72;92.20
39141;BME280;24875;48.436;10.298;2022-09-17T06:44:13;95962.00;;;10.79;92.57
39141;BME280;24875;48.436;10.298;2022-09-17T06:46:41;95966.69;;;10.97;92.51
39141;BME280;24875;48.436;10.298;2022-09-17T06:49:08;95967.34;;;10.85;90.68
39141;BME280;24875;48.436;10.298;2022-09-17T06:51:34;95971.66;;;11.07;92.01
39141;BME280;24875;48.436;10.298;2022-09-17T06:54:01;95976.84;;;11.00;89.92
39141;BME280;24875;48.436;10.298;2022-09-17T06:56:27;95968.91;;;11.15;90.02
39141;BME280;24875;48.436;10.298;2022-09-17T06:58:54;95976.00;;;11.14;90.13
39141;BME280;24875;48.436;10.298;2022-09-17T07:01:20;95979.63;;;10.93;89.23
39141;BME280;24875;48.436;10.298;2022-09-17T07:03:48;95976.13;;;11.06;86.97
39141;BME280;24875;48.436;10.298;2022-09-17T07:06:14;95973.16;;;10.95;88.43
39141;BME280;24875;48.436;10.298;2022-09-17T07:08:41;95972.53;;;10.79;89.09
39141;BME280;24875;48.436;10.298;2022-09-17T07:11:08;95980.00;;;10.90;90.20
39141;BME280;24875;48.436;10.298;2022-09-17T07:13:34;95978.13;;;10.69;88.35
39141;BME280;24875;48.436;10.298;2022-09-17T07:16:02;95991.88;;;10.86;90.44
39141;BME280;24875;48.436;10.298;2022-09-17T07:18:29;95989.66;;;11.03;90.66
39141;BME280;24875;48.436;10.298;2022-09-17T07:20:58;95994.84;;;11.11;89.72
39141;BME280;24875;48.436;10.298;2022-09-17T07:23:27;95985.91;;;11.12;89.98
39141;BME280;24875;48.436;10.298;2022-09-17T07:25:55;95991.31;;;11.04;88.74
39141;BME280;24875;48.436;10.298;2022-09-17T07:28:23;95996.84;;;11.09;89.01
39141;BME280;24875;48.436;10.298;2022-09-17T07:30:50;95996.22;;;11.07;87.92
39141;BME280;24875;48.436;10.298;2022-09-17T07:33:19;96000.47;;;11.08;88.53
39141;BME280;24875;48.436;10.298;2022-09-17T07:35:51;95996.03;;;10.94;88.46
39141;BME280;24875;48.436;10.298;2022-09-17T07:38:19;96001.44;;;10.87;89.23
39141;BME280;24875;48.436;10.298;2022-09-17T07:40:53;95996.44;;;11.12;89.57
39141;BME280;24875;48.436;10.298;2022-09-17T07:43:19;95997.06;;;10.93;90.50
39141;BME280;24875;48.436;10.298;2022-09-17T07:45:46;95999.22;;;11.04;91.42
39141;BME280;24875;48.436;10.298;2022-09-17T07:48:12;96001.13;;;11.10;89.60
39141;BME280;24875;48.436;10.298;2022-09-17T07:50:38;95999.75;;;11.14;88.14
39141;BME280;24875;48.436;10.298;2022-09-17T07:53:05;95999.06;;;10.92;88.77
39141;BME280;24875;48.436;10.298;2022-09-17T07:55:33;96004.28;;;11.20;89.60
39141;BME280;24875;48.436;10.298;2022-09-17T07:57:59;96002.09;;;11.09;89.62
39141;BME280;24875;48.436;10.298;2022-09-17T08:00:26;96003.78;;;11.31;88.93
39141;BME280;24875;48.436;10.298;2022-09-17T08:02:52;95997.28;;;11.48;89.52
39141;BME280;24875;48.436;10.298;2022-09-17T08:05:20;96001.94;;;11.67;89.82
39141;BME280;24875;48.436;10.298;2022-09-17T08:07:48;95999.66;;;11.85;88.86
39141;BME280;24875;48.436;10.298;2022-09-17T08:10:15;95987.78;;;11.74;87.64
39141;BME280;24875;48.436;10.298;2022-09-17T08:12:46;95982.81;;;11.86;88.07
39141;BME280;24875;48.436;10.298;2022-09-17T08:15:13;95986.47;;;11.64;88.39
39141;BME280;24875;48.436;10.298;2022-09-17T08:17:42;95990.56;;;11.66;87.20
39141;BME280;24875;48.436;10.298;2022-09-17T08:20:08;96000.72;;;11.28;87.13
39141;BME280;24875;48.436;10.298;2022-09-17T08:22:35;95995.13;;;11.37;88.14
39141;BME280;24875;48.436;10.298;2022-09-17T08:25:01;96000.88;;;11.26;88.71
39141;BME280;24875;48.436;10.298;2022-09-17T08:27:28;95998.00;;;11.42;89.44
39141;BME280;24875;48.436;10.298;2022-09-17T08:29:56;95995.31;;;11.36;89.48
39141;BME280;24875;48.436;10.298;2022-09-17T08:32:23;96000.72;;;11.28;89.18
39141;BME280;24875;48.436;10.298;2022-09-17T08:34:50;96001.50;;;11.28;88.63
39141;BME280;24875;48.436;10.298;2022-09-17T08:37:18;95989.56;;;11.11;89.25
39141;BME280;24875;48.436;10.298;2022-09-17T08:39:44;95986.06;;;11.46;90.05
39141;BME280;24875;48.436;10.298;2022-09-17T08:42:16;95987.34;;;11.71;88.82
39141;BME280;24875;48.436;10.298;2022-09-17T08:44:46;95983.75;;;11.78;88.37
39141;BME280;24875;48.436;10.298;2022-09-17T08:47:19;95985.44;;;11.86;87.77
39141;BME280;24875;48.436;10.298;2022-09-17T08:49:52;95990.44;;;11.95;88.69
39141;BME280;24875;48.436;10.298;2022-09-17T08:52:45;95993.66;;;11.70;86.46
39141;BME280;24875;48.436;10.298;2022-09-17T08:55:22;95996.03;;;11.65;88.46
39141;BME280;24875;48.436;10.298;2022-09-17T08:58:14;95999.38;;;11.53;89.53
39141;BME280;24875;48.436;10.298;2022-09-17T09:00:47;96002.25;;;11.22;90.67
39141;BME280;24875;48.436;10.298;2022-09-17T09:03:27;96000.25;;;11.24;92.80
39141;BME280;24875;48.436;10.298;2022-09-17T09:05:59;96009.75;;;11.19;92.23
39141;BME280;24875;48.436;10.298;2022-09-17T09:08:29;96009.63;;;11.12;93.50
39141;BME280;24875;48.436;10.298;2022-09-17T09:10:58;96017.97;;;10.95;96.52
39141;BME280;24875;48.436;10.298;2022-09-17T09:13:28;96013.88;;;10.93;96.72
39141;BME280;24875;48.436;10.298;2022-09-17T09:15:58;96019.25;;;10.85;97.37
39141;BME280;24875;48.436;10.298;2022-09-17T09:18:29;96030.63;;;10.85;100.00
39141;BME280;24875;48.436;10.298;2022-09-17T09:21:03;96030.34;;;10.80;100.00
39141;BME280;24875;48.436;10.298;2022-09-17T09:23:43;96026.94;;;11.00;100.00
39141;BME280;24875;48.436;10.298;2022-09-17T09:26:15;96030.75;;;11.12;100.00
39141;BME280;24875;48.436;10.298;2022-09-17T09:28:52;96025.72;;;11.17;100.00
39141;BME280;24875;48.436;10.298;2022-09-17T09:31:43;96032.13;;;11.08;100.00
39141;BME280;24875;48.436;10.298;2022-09-17T09:34:14;96034.06;;;10.86;100.00
39141;BME280;24875;48.436;10.298;2022-09-17T09:36:41;96046.06;;;10.88;100.00
39141;BME280;24875;48.436;10.298;2022-09-17T09:39:14;96048.06;;;10.86;100.00
39141;BME280;24875;48.436;10.298;2022-09-17T09:41:43;96036.50;;;11.01;100.00
39141;BME280;24875;48.436;10.298;2022-09-17T09:44:12;96045.97;;;10.96;100.00
39141;BME280;24875;48.436;10.298;2022-09-17T09:46:50;96049.31;;;11.19;100.00
39141;BME280;24875;48.436;10.298;2022-09-17T09:49:32;96044.03;;;11.19;100.00
39141;BME280;24875;48.436;10.298;2022-09-17T09:52:12;96046.56;;;11.27;100.00
39141;BME280;24875;48.436;10.298;2022-09-17T09:54:52;96056.72;;;11.30;100.00
39141;BME280;24875;48.436;10.298;2022-09-17T09:57:32;96050.91;;;11.20;100.00
39141;BME280;24875;48.436;10.298;2022-09-17T10:00:20;96051.47;;;11.15;100.00
39141;BME280;24875;48.436;10.298;2022-09-17T10:02:52;96050.56;;;11.08;100.00
39141;BME280;24875;48.436;10.298;2022-09-17T10:05:21;96056.06;;;10.93;100.00
39141;BME280;24875;48.436;10.298;2022-09-17T10:07:47;96056.06;;;10.93;100.00
39141;BME280;24875;48.436;10.298;2022-09-17T10:10:14;96061.06;;;10.88;100.00
39141;BME280;24875;48.436;10.298;2022-09-17T10:12:40;96052.22;;;11.09;100.00
39141;BME280;24875;48.436;10.298;2022-09-17T10:15:22;96061.91;;;11.23;100.00
39141;BME280;24875;48.436;10.298;2022-09-17T10:18:13;96063.31;;;11.40;100.00
39141;BME280;24875;48.436;10.298;2022-09-17T10:20:59;96065.53;;;11.51;100.00
39141;BME280;24875;48.436;10.298;2022-09-17T10:23:27;96059.50;;;11.57;100.00
39141;BME280;24875;48.436;10.298;2022-09-17T10:25:55;96063.41;;;11.61;100.00
39141;BME280;24875;48.436;10.298;2022-09-17T10:28:37;96060.59;;;11.48;99.92
39141;BME280;24875;48.436;10.298;2022-09-17T10:31:06;96058.31;;;11.45;100.00
39141;BME280;24875;48.436;10.298;2022-09-17T10:33:37;96060.84;;;11.67;100.00
39141;BME280;24875;48.436;10.298;2022-09-17T10:36:07;96057.53;;;11.65;100.00
39141;BME280;24875;48.436;10.298;2022-09-17T10:38:36;96064.34;;;11.54;100.00
39141;BME280;24875;48.436;10.298;2022-09-17T10:41:17;96052.72;;;11.69;100.00
39141;BME280;24875;48.436;10.298;2022-09-17T10:43:46;96064.47;;;11.17;100.00
39141;BME280;24875;48.436;10.298;2022-09-17T10:46:15;96056.75;;;11.15;100.00
39141;BME280;24875;48.436;10.298;2022-09-17T10:48:45;96054.38;;;11.20;100.00
39141;BME280;24875;48.436;10.298;2022-09-17T10:51:22;96053.34;;;11.71;100.00
39141;BME280;24875;48.436;10.298;2022-09-17T10:54:01;96043.88;;;12.24;100.00
39141;BME280;24875;48.436;10.298;2022-09-17T10:56:33;96036.56;;;12.26;98.34
39141;BME280;24875;48.436;10.298;2022-09-17T10:59:16;96046.91;;;12.21;96.34
39141;BME280;24875;48.436;10.298;2022-09-17T11:01:55;96046.81;;;12.36;95.13
39141;BME280;24875;48.436;10.298;2022-09-17T11:04:33;96047.19;;;12.60;93.13
39141;BME280;24875;48.436;10.298;2022-09-17T11:07:24;96037.75;;;12.85;93.96
39141;BME280;24875;48.436;10.298;2022-09-17T11:10:11;96036.81;;;12.65;91.65
39141;BME280;24875;48.436;10.298;2022-09-17T11:12:54;96041.19;;;12.45;89.40
39141;BME280;24875;48.436;10.298;2022-09-17T11:15:35;96048.97;;;12.05;89.74
39141;BME280;24875;48.436;10.298;2022-09-17T11:18:20;96043.75;;;12.12;88.98
39141;BME280;24875;48.436;10.298;2022-09-17T11:20:57;96036.63;;;12.06;88.58
39141;BME280;24875;48.436;10.298;2022-09-17T11:23:53;96048.72;;;12.21;88.59
39141;BME280;24875;48.436;10.298;2022-09-17T11:26:29;96042.66;;;12.00;87.26
39141;BME280;24875;48.436;10.298;2022-09-17T11:29:05;96046.53;;;12.04;89.82
39141;BME280;24875;48.436;10.298;2022-09-17T11:31:38;96041.44;;;12.02;90.81
39141;BME280;24875;48.436;10.298;2022-09-17T11:34:28;96042.09;;;12.04;89.45
39141;BME280;24875;48.436;10.298;2022-09-17T11:37:01;96034.78;;;12.06;91.06
39141;BME280;24875;48.436;10.298;2022-09-17T11:39:35;96039.13;;;12.14;90.07
39141;BME280;24875;48.436;10.298;2022-09-17T11:42:08;96035.41;;;12.08;92.74
39141;BME280;24875;48.436;10.298;2022-09-17T11:44:37;96035.00;;;11.84;92.45
39141;BME280;24875;48.436;10.298;2022-09-17T11:47:09;96044.06;;;11.75;92.04
39141;BME280;24875;48.436;10.298;2022-09-17T11:49:42;96041.53;;;11.67;90.13
39141;BME280;24875;48.436;10.298;2022-09-17T11:52:13;96043.91;;;11.62;92.17
39141;BME280;24875;48.436;10.298;2022-09-17T11:54:48;96043.94;;;11.48;90.94
39141;BME280;24875;48.436;10.298;2022-09-17T11:57:19;96042.28;;;11.61;93.48
39141;BME280;24875;48.436;10.298;2022-09-17T11:59:52;96042.03;;;11.56;94.54
39141;BME280;24875;48.436;10.298;2022-09-17T12:02:25;96045.22;;;11.52;95.49
39141;BME280;24875;48.436;10.298;2022-09-17T12:04:57;96034.84;;;11.71;93.22
39141;BME280;24875;48.436;10.298;2022-09-17T12:07:33;96019.28;;;11.97;95.53
39141;BME280;24875;48.436;10.298;2022-09-17T12:10:17;96026.59;;;12.22;92.13
39141;BME280;24875;48.436;10.298;2022-09-17T12:12:49;96011.31;;;12.17;91.37
39141;BME280;24875;48.436;10.298;2022-09-17T12:15:20;96007.88;;;12.51;92.01
39141;BME280;24875;48.436;10.298;2022-09-17T12:17:53;96002.66;;;12.64;87.30
39141;BME280;24875;48.436;10.298;2022-09-17T12:20:26;95997.97;;;12.93;89.92
39141;BME280;24875;48.436;10.298;2022-09-17T12:22:54;95997.19;;;13.05;83.25
39141;BME280;24875;48.436;10.298;2022-09-17T12:25:24;95998.97;;;13.51;83.57
39141;BME280;24875;48.436;10.298;2022-09-17T12:27:58;95989.44;;;13.57;82.51
39141;BME280;24875;48.436;10.298;2022-09-17T12:30:28;95978.22;;;13.81;83.38
39141;BME280;24875;48.436;10.298;2022-09-17T12:33:17;95982.72;;;13.74;79.79
39141;BME280;24875;48.436;10.298;2022-09-17T12:36:13;95983.31;;;13.56;77.32
39141;BME280;24875;48.436;10.298;2022-09-17T12:38:58;95970.50;;;13.73;77.34
39141;BME280;24875;48.436;10.298;2022-09-17T12:41:38;95970.50;;;14.05;79.70
39141;BME280;24875;48.436;10.298;2022-09-17T12:44:18;95970.50;;;13.98;80.96
39141;BME280;24875;48.436;10.298;2022-09-17T12:47:02;95960.53;;;14.20;75.42
39141;BME280;24875;48.436;10.298;2022-09-17T12:49:48;95962.56;;;14.31;77.64
39141;BME280;24875;48.436;10.298;2022-09-17T12:52:26;95976.03;;;14.23;74.71
39141;BME280;24875;48.436;10.298;2022-09-17T12:58:01;95969.25;;;13.56;75.75
39141;BME280;24875;48.436;10.298;2022-09-17T13:00:36;95973.66;;;13.17;79.63
39141;BME280;24875;48.436;10.298;2022-09-17T13:03:12;95974.31;;;13.32;80.56
39141;BME280;24875;48.436;10.298;2022-09-17T13:06:04;95984.63;;;13.14;81.78
39141;BME280;24875;48.436;10.298;2022-09-17T13:08:56;95993.88;;;12.57;84.45
39141;BME280;24875;48.436;10.298;2022-09-17T13:12:01;95994.56;;;11.83;87.93
39141;BME280;24875;48.436;10.298;2022-09-17T13:14:47;95994.72;;;11.75;95.39
39141;BME280;24875;48.436;10.298;2022-09-17T13:17:19;96001.19;;;11.73;94.62